sensor_id;sensor_type;location;lat;lon;timestamp;P1;durP1;ratioP1;P2;durP2;ratioP2
73980;SDS011;62348;51.412;5.436;2023-03-31T00:01:25;6.90;;;1.85;;
73980;SDS011;62348;51.412;5.436;2023-03-31T00:03:51;9.52;;;2.00;;
73980;SDS011;62348;51.412;5.436;2023-03-31T00:06:26;8.50;;;2.28;;
73980;SDS011;62348;51.412;5.436;2023-03-31T00:08:52;6.25;;;1.92;;
73980;SDS011;62348;51.412;5.436;2023-03-31T00:11:18;10.95;;;2.22;;
73980;SDS011;62348;51.412;5.436;2023-03-31T00:13:47;5.72;;;1.77;;
73980;SDS011;62348;51.412;5.436;2023-03-31T00:16:13;8.50;;;2.13;;
73980;SDS011;62348;51.412;5.436;2023-03-31T00:18:39;7.32;;;1.60;;
73980;SDS011;62348;51.412;5.436;2023-03-31T00:23:54;7.10;;;1.95;;
73980;SDS011;62348;51.412;5.436;2023-03-31T00:26:21;5.15;;;1.83;;
73980;SDS011;62348;51.412;5.436;2023-03-31T00:28:48;6.13;;;2.10;;
73980;SDS011;62348;51.412;5.436;2023-03-31T00:31:14;5.68;;;1.83;;
73980;SDS011;62348;51.412;5.436;2023-03-31T00:33:40;5.43;;;1.70;;
73980;SDS011;62348;51.412;5.436;2023-03-31T00:36:05;7.72;;;1.77;;
73980;SDS011;62348;51.412;5.436;2023-03-31T00:38:31;5.65;;;2.10;;
73980;SDS011;62348;51.412;5.436;2023-03-31T00:40:57;7.65;;;1.88;;
73980;SDS011;62348;51.412;5.436;2023-03-31T00:43:28;10.77;;;2.05;;
73980;SDS011;62348;51.412;5.436;2023-03-31T00:46:17;6.20;;;2.10;;
73980;SDS011;62348;51.412;5.436;2023-03-31T00:48:52;8.75;;;2.22;;
73980;SDS011;62348;51.412;5.436;2023-03-31T00:51:23;7.15;;;1.65;;
73980;SDS011;62348;51.412;5.436;2023-03-31T00:53:55;4.00;;;1.63;;
73980;SDS011;62348;51.412;5.436;2023-03-31T00:56:27;9.00;;;2.10;;
73980;SDS011;62348;51.412;5.436;2023-03-31T00:58:59;7.70;;;1.80;;
73980;SDS011;62348;51.412;5.436;2023-03-31T01:01:27;10.98;;;1.90;;
73980;SDS011;62348;51.412;5.436;2023-03-31T01:03:54;6.93;;;1.95;;
73980;SDS011;62348;51.412;5.436;2023-03-31T01:06:21;8.98;;;1.85;;
73980;SDS011;62348;51.412;5.436;2023-03-31T01:08:48;9.73;;;1.88;;
73980;SDS011;62348;51.412;5.436;2023-03-31T01:11:17;8.00;;;1.98;;
73980;SDS011;62348;51.412;5.436;2023-03-31T01:13:44;8.75;;;1.73;;
73980;SDS011;62348;51.412;5.436;2023-03-31T01:16:15;7.57;;;2.10;;
73980;SDS011;62348;51.412;5.436;2023-03-31T01:18:41;15.10;;;2.38;;
73980;SDS011;62348;51.412;5.436;2023-03-31T01:41:20;11.05;;;3.25;;
73980;SDS011;62348;51.412;5.436;2023-03-31T01:46:34;12.63;;;3.20;;
73980;SDS011;62348;51.412;5.436;2023-03-31T01:49:20;11.73;;;3.03;;
73980;SDS011;62348;51.412;5.436;2023-03-31T01:52:36;13.85;;;3.03;;
73980;SDS011;62348;51.412;5.436;2023-03-31T01:55:11;9.27;;;2.95;;
73980;SDS011;62348;51.412;5.436;2023-03-31T01:57:47;11.02;;;3.13;;
73980;SDS011;62348;51.412;5.436;2023-03-31T02:00:18;10.20;;;2.78;;
73980;SDS011;62348;51.412;5.436;2023-03-31T02:02:57;16.50;;;3.33;;
73980;SDS011;62348;51.412;5.436;2023-03-31T02:05:34;10.25;;;3.08;;
73980;SDS011;62348;51.412;5.436;2023-03-31T02:08:09;14.55;;;3.30;;
73980;SDS011;62348;51.412;5.436;2023-03-31T02:10:39;20.98;;;3.88;;
73980;SDS011;62348;51.412;5.436;2023-03-31T02:13:07;13.90;;;3.35;;
73980;SDS011;62348;51.412;5.436;2023-03-31T02:15:38;12.25;;;3.72;;
73980;SDS011;62348;51.412;5.436;2023-03-31T02:18:07;9.88;;;2.78;;
73980;SDS011;62348;51.412;5.436;2023-03-31T02:20:38;14.88;;;3.30;;
73980;SDS011;62348;51.412;5.436;2023-03-31T02:23:11;15.52;;;3.75;;
73980;SDS011;62348;51.412;5.436;2023-03-31T02:25:40;14.07;;;3.75;;
73980;SDS011;62348;51.412;5.436;2023-03-31T02:28:11;11.40;;;2.97;;
73980;SDS011;62348;51.412;5.436;2023-03-31T02:30:45;8.70;;;2.97;;
73980;SDS011;62348;51.412;5.436;2023-03-31T02:33:17;17.80;;;3.30;;
73980;SDS011;62348;51.412;5.436;2023-03-31T02:35:43;11.43;;;2.60;;
73980;SDS011;62348;51.412;5.436;2023-03-31T02:38:09;13.25;;;3.10;;
73980;SDS011;62348;51.412;5.436;2023-03-31T02:40:35;13.52;;;3.28;;
73980;SDS011;62348;51.412;5.436;2023-03-31T02:43:01;12.57;;;2.80;;
73980;SDS011;62348;51.412;5.436;2023-03-31T03:15:12;11.70;;;2.88;;
73980;SDS011;62348;51.412;5.436;2023-03-31T03:17:46;12.77;;;2.90;;
73980;SDS011;62348;51.412;5.436;2023-03-31T03:20:13;14.18;;;2.65;;
73980;SDS011;62348;51.412;5.436;2023-03-31T03:22:40;15.30;;;3.50;;
73980;SDS011;62348;51.412;5.436;2023-03-31T03:25:08;14.23;;;2.78;;
73980;SDS011;62348;51.412;5.436;2023-03-31T03:27:36;14.32;;;2.80;;
73980;SDS011;62348;51.412;5.436;2023-03-31T03:30:02;9.32;;;2.22;;
73980;SDS011;62348;51.412;5.436;2023-03-31T03:32:29;13.57;;;2.28;;
73980;SDS011;62348;51.412;5.436;2023-03-31T03:34:55;14.52;;;2.78;;
73980;SDS011;62348;51.412;5.436;2023-03-31T03:37:20;13.90;;;2.65;;
73980;SDS011;62348;51.412;5.436;2023-03-31T03:39:46;12.40;;;2.25;;
73980;SDS011;62348;51.412;5.436;2023-03-31T03:42:11;9.77;;;2.00;;
73980;SDS011;62348;51.412;5.436;2023-03-31T03:44:37;12.10;;;2.35;;
73980;SDS011;62348;51.412;5.436;2023-03-31T03:47:02;10.88;;;2.50;;
73980;SDS011;62348;51.412;5.436;2023-03-31T03:49:28;13.30;;;2.17;;
73980;SDS011;62348;51.412;5.436;2023-03-31T03:51:53;10.70;;;2.58;;
73980;SDS011;62348;51.412;5.436;2023-03-31T03:54:19;6.68;;;1.92;;
73980;SDS011;62348;51.412;5.436;2023-03-31T03:56:44;7.97;;;1.90;;
73980;SDS011;62348;51.412;5.436;2023-03-31T03:59:10;13.82;;;2.22;;
73980;SDS011;62348;51.412;5.436;2023-03-31T04:01:36;10.05;;;2.53;;
73980;SDS011;62348;51.412;5.436;2023-03-31T04:04:02;15.38;;;2.88;;
73980;SDS011;62348;51.412;5.436;2023-03-31T04:06:28;7.88;;;2.92;;
73980;SDS011;62348;51.412;5.436;2023-03-31T04:08:53;13.05;;;2.40;;
73980;SDS011;62348;51.412;5.436;2023-03-31T04:11:19;8.75;;;1.70;;
73980;SDS011;62348;51.412;5.436;2023-03-31T04:13:44;8.32;;;1.95;;
73980;SDS011;62348;51.412;5.436;2023-03-31T04:16:11;11.95;;;2.28;;
73980;SDS011;62348;51.412;5.436;2023-03-31T04:18:36;8.23;;;1.83;;
73980;SDS011;62348;51.412;5.436;2023-03-31T04:21:06;7.63;;;1.75;;
73980;SDS011;62348;51.412;5.436;2023-03-31T04:23:36;11.73;;;1.98;;
73980;SDS011;62348;51.412;5.436;2023-03-31T04:26:06;10.65;;;1.90;;
73980;SDS011;62348;51.412;5.436;2023-03-31T04:28:33;7.40;;;2.08;;
73980;SDS011;62348;51.412;5.436;2023-03-31T04:31:00;7.10;;;2.22;;
73980;SDS011;62348;51.412;5.436;2023-03-31T04:33:26;8.80;;;1.65;;
73980;SDS011;62348;51.412;5.436;2023-03-31T04:35:52;5.03;;;1.65;;
73980;SDS011;62348;51.412;5.436;2023-03-31T04:38:18;7.50;;;2.03;;
73980;SDS011;62348;51.412;5.436;2023-03-31T04:40:49;5.50;;;1.50;;
73980;SDS011;62348;51.412;5.436;2023-03-31T04:43:16;6.20;;;1.55;;
73980;SDS011;62348;51.412;5.436;2023-03-31T04:45:43;7.60;;;2.10;;
73980;SDS011;62348;51.412;5.436;2023-03-31T04:48:09;6.43;;;1.65;;
73980;SDS011;62348;51.412;5.436;2023-03-31T04:50:35;9.48;;;2.30;;
73980;SDS011;62348;51.412;5.436;2023-03-31T04:53:02;6.75;;;1.90;;
73980;SDS011;62348;51.412;5.436;2023-03-31T04:55:27;8.50;;;2.05;;
73980;SDS011;62348;51.412;5.436;2023-03-31T04:57:53;7.10;;;1.77;;
73980;SDS011;62348;51.412;5.436;2023-03-31T05:00:18;8.55;;;1.75;;
73980;SDS011;62348;51.412;5.436;2023-03-31T05:02:45;7.05;;;1.70;;
73980;SDS011;62348;51.412;5.436;2023-03-31T05:05:10;5.57;;;1.65;;
73980;SDS011;62348;51.412;5.436;2023-03-31T05:07:36;6.25;;;1.40;;
73980;SDS011;62348;51.412;5.436;2023-03-31T05:10:02;10.73;;;1.60;;
73980;SDS011;62348;51.412;5.436;2023-03-31T05:12:28;4.85;;;1.55;;
73980;SDS011;62348;51.412;5.436;2023-03-31T05:14:57;9.95;;;1.73;;
73980;SDS011;62348;51.412;5.436;2023-03-31T05:17:23;5.53;;;2.15;;
73980;SDS011;62348;51.412;5.436;2023-03-31T05:19:48;5.78;;;1.40;;
73980;SDS011;62348;51.412;5.436;2023-03-31T05:22:13;8.95;;;1.67;;
73980;SDS011;62348;51.412;5.436;2023-03-31T05:24:41;6.47;;;1.90;;
73980;SDS011;62348;51.412;5.436;2023-03-31T05:27:06;7.85;;;2.10;;
73980;SDS011;62348;51.412;5.436;2023-03-31T05:29:31;5.32;;;1.45;;
73980;SDS011;62348;51.412;5.436;2023-03-31T05:31:57;5.47;;;1.48;;
73980;SDS011;62348;51.412;5.436;2023-03-31T05:34:22;5.78;;;1.55;;
73980;SDS011;62348;51.412;5.436;2023-03-31T05:36:48;7.75;;;1.65;;
73980;SDS011;62348;51.412;5.436;2023-03-31T05:39:15;8.55;;;2.15;;
73980;SDS011;62348;51.412;5.436;2023-03-31T05:41:40;7.25;;;2.35;;
73980;SDS011;62348;51.412;5.436;2023-03-31T05:44:06;6.40;;;1.77;;
73980;SDS011;62348;51.412;5.436;2023-03-31T05:46:31;6.45;;;1.70;;
73980;SDS011;62348;51.412;5.436;2023-03-31T05:48:57;8.68;;;1.75;;
73980;SDS011;62348;51.412;5.436;2023-03-31T05:51:22;7.75;;;1.67;;
73980;SDS011;62348;51.412;5.436;2023-03-31T05:53:48;3.40;;;1.55;;
73980;SDS011;62348;51.412;5.436;2023-03-31T05:56:13;8.55;;;1.80;;
73980;SDS011;62348;51.412;5.436;2023-03-31T05:58:39;11.52;;;2.42;;
73980;SDS011;62348;51.412;5.436;2023-03-31T06:03:33;8.48;;;2.13;;
73980;SDS011;62348;51.412;5.436;2023-03-31T06:06:00;6.43;;;1.80;;
73980;SDS011;62348;51.412;5.436;2023-03-31T06:08:26;9.02;;;1.95;;
73980;SDS011;62348;51.412;5.436;2023-03-31T06:10:52;5.10;;;1.65;;
73980;SDS011;62348;51.412;5.436;2023-03-31T06:13:18;6.15;;;2.25;;
73980;SDS011;62348;51.412;5.436;2023-03-31T06:15:51;6.75;;;1.55;;
73980;SDS011;62348;51.412;5.436;2023-03-31T06:18:26;6.57;;;1.80;;
73980;SDS011;62348;51.412;5.436;2023-03-31T06:20:53;9.55;;;2.08;;
73980;SDS011;62348;51.412;5.436;2023-03-31T06:23:19;7.88;;;2.47;;
73980;SDS011;62348;51.412;5.436;2023-03-31T06:25:46;10.18;;;2.55;;
73980;SDS011;62348;51.412;5.436;2023-03-31T06:28:11;13.80;;;1.92;;
73980;SDS011;62348;51.412;5.436;2023-03-31T06:30:37;7.70;;;1.65;;
73980;SDS011;62348;51.412;5.436;2023-03-31T06:33:02;11.05;;;2.83;;
73980;SDS011;62348;51.412;5.436;2023-03-31T06:35:28;8.52;;;2.20;;
73980;SDS011;62348;51.412;5.436;2023-03-31T06:37:53;7.78;;;2.03;;
73980;SDS011;62348;51.412;5.436;2023-03-31T06:40:19;8.20;;;2.35;;
73980;SDS011;62348;51.412;5.436;2023-03-31T06:42:44;11.57;;;2.50;;
73980;SDS011;62348;51.412;5.436;2023-03-31T06:45:10;8.23;;;2.78;;
73980;SDS011;62348;51.412;5.436;2023-03-31T06:47:35;10.30;;;2.58;;
73980;SDS011;62348;51.412;5.436;2023-03-31T06:50:06;14.57;;;2.60;;
73980;SDS011;62348;51.412;5.436;2023-03-31T06:52:33;8.48;;;2.00;;
73980;SDS011;62348;51.412;5.436;2023-03-31T06:55:00;10.77;;;2.33;;
73980;SDS011;62348;51.412;5.436;2023-03-31T06:57:26;13.07;;;2.50;;
73980;SDS011;62348;51.412;5.436;2023-03-31T06:59:52;13.43;;;2.58;;
73980;SDS011;62348;51.412;5.436;2023-03-31T07:02:17;10.00;;;2.67;;
73980;SDS011;62348;51.412;5.436;2023-03-31T07:04:43;7.97;;;2.55;;
73980;SDS011;62348;51.412;5.436;2023-03-31T07:07:08;12.75;;;3.15;;
73980;SDS011;62348;51.412;5.436;2023-03-31T07:09:34;12.00;;;2.53;;
73980;SDS011;62348;51.412;5.436;2023-03-31T07:11:59;8.57;;;2.50;;
73980;SDS011;62348;51.412;5.436;2023-03-31T07:14:25;14.90;;;2.88;;
73980;SDS011;62348;51.412;5.436;2023-03-31T07:16:51;12.35;;;2.72;;
73980;SDS011;62348;51.412;5.436;2023-03-31T07:19:16;10.88;;;2.75;;
73980;SDS011;62348;51.412;5.436;2023-03-31T07:21:41;12.02;;;2.17;;
73980;SDS011;62348;51.412;5.436;2023-03-31T07:24:07;9.80;;;2.83;;
73980;SDS011;62348;51.412;5.436;2023-03-31T07:26:32;8.48;;;2.35;;
73980;SDS011;62348;51.412;5.436;2023-03-31T07:28:58;9.77;;;3.17;;
73980;SDS011;62348;51.412;5.436;2023-03-31T07:31:23;14.30;;;3.85;;
73980;SDS011;62348;51.412;5.436;2023-03-31T07:33:49;21.88;;;3.78;;
73980;SDS011;62348;51.412;5.436;2023-03-31T07:36:14;10.35;;;2.97;;
73980;SDS011;62348;51.412;5.436;2023-03-31T07:38:41;10.55;;;2.85;;
73980;SDS011;62348;51.412;5.436;2023-03-31T07:41:11;15.13;;;3.38;;
73980;SDS011;62348;51.412;5.436;2023-03-31T07:43:38;18.33;;;2.95;;
73980;SDS011;62348;51.412;5.436;2023-03-31T07:46:04;15.40;;;3.28;;
73980;SDS011;62348;51.412;5.436;2023-03-31T07:48:31;19.65;;;4.00;;
73980;SDS011;62348;51.412;5.436;2023-03-31T07:50:57;15.38;;;3.42;;
73980;SDS011;62348;51.412;5.436;2023-03-31T07:53:23;20.00;;;3.70;;
73980;SDS011;62348;51.412;5.436;2023-03-31T07:55:48;16.58;;;3.92;;
73980;SDS011;62348;51.412;5.436;2023-03-31T07:58:14;12.02;;;3.30;;
73980;SDS011;62348;51.412;5.436;2023-03-31T08:00:39;16.92;;;4.60;;
73980;SDS011;62348;51.412;5.436;2023-03-31T08:03:05;16.80;;;3.40;;
73980;SDS011;62348;51.412;5.436;2023-03-31T08:05:31;14.35;;;3.35;;
73980;SDS011;62348;51.412;5.436;2023-03-31T08:07:56;12.13;;;2.58;;
73980;SDS011;62348;51.412;5.436;2023-03-31T08:10:23;19.27;;;4.10;;
73980;SDS011;62348;51.412;5.436;2023-03-31T08:12:50;19.10;;;3.67;;
73980;SDS011;62348;51.412;5.436;2023-03-31T08:15:16;15.18;;;3.65;;
73980;SDS011;62348;51.412;5.436;2023-03-31T08:17:41;13.48;;;2.95;;
73980;SDS011;62348;51.412;5.436;2023-03-31T08:20:07;12.98;;;3.60;;
73980;SDS011;62348;51.412;5.436;2023-03-31T08:22:34;15.00;;;3.88;;
73980;SDS011;62348;51.412;5.436;2023-03-31T08:25:01;17.23;;;3.45;;
73980;SDS011;62348;51.412;5.436;2023-03-31T08:27:27;11.85;;;3.47;;
73980;SDS011;62348;51.412;5.436;2023-03-31T08:29:52;13.20;;;3.53;;
73980;SDS011;62348;51.412;5.436;2023-03-31T08:32:20;26.98;;;4.13;;
73980;SDS011;62348;51.412;5.436;2023-03-31T08:34:47;13.07;;;3.22;;
73980;SDS011;62348;51.412;5.436;2023-03-31T08:37:12;22.88;;;4.07;;
73980;SDS011;62348;51.412;5.436;2023-03-31T08:39:37;17.73;;;3.97;;
73980;SDS011;62348;51.412;5.436;2023-03-31T08:42:09;14.38;;;3.33;;
73980;SDS011;62348;51.412;5.436;2023-03-31T08:44:59;17.88;;;3.60;;
73980;SDS011;62348;51.412;5.436;2023-03-31T08:47:30;18.95;;;5.18;;
73980;SDS011;62348;51.412;5.436;2023-03-31T08:49:59;17.27;;;3.70;;
73980;SDS011;62348;51.412;5.436;2023-03-31T08:52:33;13.85;;;3.28;;
73980;SDS011;62348;51.412;5.436;2023-03-31T08:55:04;17.70;;;4.45;;
73980;SDS011;62348;51.412;5.436;2023-03-31T09:06:30;16.00;;;3.70;;
73980;SDS011;62348;51.412;5.436;2023-03-31T09:09:02;13.20;;;3.33;;
73980;SDS011;62348;51.412;5.436;2023-03-31T09:11:54;14.70;;;4.40;;
73980;SDS011;62348;51.412;5.436;2023-03-31T09:14:24;21.08;;;4.15;;
73980;SDS011;62348;51.412;5.436;2023-03-31T09:17:05;13.55;;;3.30;;
73980;SDS011;62348;51.412;5.436;2023-03-31T09:19:53;17.75;;;4.05;;
73980;SDS011;62348;51.412;5.436;2023-03-31T09:22:30;16.90;;;3.30;;
73980;SDS011;62348;51.412;5.436;2023-03-31T09:27:58;16.77;;;3.20;;
73980;SDS011;62348;51.412;5.436;2023-03-31T09:30:28;19.00;;;3.35;;
73980;SDS011;62348;51.412;5.436;2023-03-31T09:33:14;14.73;;;3.65;;
73980;SDS011;62348;51.412;5.436;2023-03-31T09:35:42;14.45;;;3.15;;
73980;SDS011;62348;51.412;5.436;2023-03-31T09:38:11;14.43;;;3.17;;
73980;SDS011;62348;51.412;5.436;2023-03-31T09:40:37;17.42;;;3.30;;
73980;SDS011;62348;51.412;5.436;2023-03-31T09:43:04;11.55;;;2.85;;
73980;SDS011;62348;51.412;5.436;2023-03-31T09:45:31;13.07;;;3.20;;
73980;SDS011;62348;51.412;5.436;2023-03-31T09:48:04;9.55;;;2.63;;
73980;SDS011;62348;51.412;5.436;2023-03-31T09:50:39;15.18;;;3.65;;
73980;SDS011;62348;51.412;5.436;2023-03-31T09:53:14;11.70;;;3.00;;
73980;SDS011;62348;51.412;5.436;2023-03-31T09:56:00;11.88;;;3.13;;
73980;SDS011;62348;51.412;5.436;2023-03-31T09:58:27;13.57;;;3.20;;
73980;SDS011;62348;51.412;5.436;2023-03-31T10:00:57;16.95;;;3.00;;
73980;SDS011;62348;51.412;5.436;2023-03-31T10:03:25;10.10;;;2.80;;
73980;SDS011;62348;51.412;5.436;2023-03-31T10:05:54;12.25;;;2.58;;
73980;SDS011;62348;51.412;5.436;2023-03-31T10:10:55;7.20;;;2.22;;
73980;SDS011;62348;51.412;5.436;2023-03-31T10:16:10;9.90;;;2.55;;
73980;SDS011;62348;51.412;5.436;2023-03-31T10:18:39;13.27;;;2.85;;
73980;SDS011;62348;51.412;5.436;2023-03-31T10:21:13;10.95;;;2.42;;
73980;SDS011;62348;51.412;5.436;2023-03-31T10:23:46;13.73;;;2.55;;
73980;SDS011;62348;51.412;5.436;2023-03-31T10:26:20;16.55;;;2.50;;
73980;SDS011;62348;51.412;5.436;2023-03-31T10:28:50;15.23;;;2.80;;
73980;SDS011;62348;51.412;5.436;2023-03-31T10:31:17;8.82;;;2.95;;
73980;SDS011;62348;51.412;5.436;2023-03-31T10:33:47;12.85;;;3.80;;
73980;SDS011;62348;51.412;5.436;2023-03-31T10:36:21;10.15;;;2.20;;
73980;SDS011;62348;51.412;5.436;2023-03-31T10:38:50;11.10;;;2.42;;
73980;SDS011;62348;51.412;5.436;2023-03-31T10:41:17;9.32;;;2.83;;
73980;SDS011;62348;51.412;5.436;2023-03-31T10:43:54;18.23;;;3.65;;
73980;SDS011;62348;51.412;5.436;2023-03-31T10:47:14;9.10;;;3.00;;
73980;SDS011;62348;51.412;5.436;2023-03-31T10:49:19;13.57;;;2.88;;
73980;SDS011;62348;51.412;5.436;2023-03-31T10:51:53;13.82;;;3.42;;
73980;SDS011;62348;51.412;5.436;2023-03-31T10:54:21;14.23;;;2.75;;
73980;SDS011;62348;51.412;5.436;2023-03-31T10:56:50;12.70;;;3.00;;
73980;SDS011;62348;51.412;5.436;2023-03-31T10:59:52;12.43;;;3.08;;
73980;SDS011;62348;51.412;5.436;2023-03-31T11:05:23;8.88;;;2.20;;
73980;SDS011;62348;51.412;5.436;2023-03-31T11:14:35;15.02;;;2.78;;
73980;SDS011;62348;51.412;5.436;2023-03-31T11:25:11;12.68;;;2.97;;
73980;SDS011;62348;51.412;5.436;2023-03-31T11:30:27;12.70;;;2.67;;
73980;SDS011;62348;51.412;5.436;2023-03-31T11:42:20;14.57;;;2.72;;
73980;SDS011;62348;51.412;5.436;2023-03-31T11:44:51;14.48;;;2.60;;
73980;SDS011;62348;51.412;5.436;2023-03-31T11:47:24;11.00;;;3.08;;
73980;SDS011;62348;51.412;5.436;2023-03-31T11:49:55;14.00;;;2.58;;
73980;SDS011;62348;51.412;5.436;2023-03-31T11:52:26;13.93;;;2.10;;
73980;SDS011;62348;51.412;5.436;2023-03-31T11:55:01;9.25;;;2.88;;
73980;SDS011;62348;51.412;5.436;2023-03-31T12:00:11;8.93;;;2.05;;
73980;SDS011;62348;51.412;5.436;2023-03-31T12:05:12;10.48;;;2.10;;
73980;SDS011;62348;51.412;5.436;2023-03-31T12:10:22;11.55;;;3.17;;
73980;SDS011;62348;51.412;5.436;2023-03-31T12:15:53;13.43;;;2.90;;
73980;SDS011;62348;51.412;5.436;2023-03-31T12:18:30;8.95;;;2.10;;
73980;SDS011;62348;51.412;5.436;2023-03-31T12:21:01;13.20;;;3.08;;
73980;SDS011;62348;51.412;5.436;2023-03-31T12:23:29;12.07;;;2.80;;
73980;SDS011;62348;51.412;5.436;2023-03-31T12:26:01;8.55;;;2.63;;
73980;SDS011;62348;51.412;5.436;2023-03-31T12:28:42;11.95;;;3.25;;
73980;SDS011;62348;51.412;5.436;2023-03-31T12:31:10;5.60;;;1.92;;
73980;SDS011;62348;51.412;5.436;2023-03-31T12:33:45;10.38;;;2.72;;
73980;SDS011;62348;51.412;5.436;2023-03-31T12:57:47;9.15;;;3.30;;
73980;SDS011;62348;51.412;5.436;2023-03-31T13:02:45;12.02;;;4.07;;
73980;SDS011;62348;51.412;5.436;2023-03-31T13:08:10;10.50;;;2.88;;
73980;SDS011;62348;51.412;5.436;2023-03-31T13:16:30;5.18;;;1.45;;
73980;SDS011;62348;51.412;5.436;2023-03-31T13:19:00;6.97;;;1.52;;
73980;SDS011;62348;51.412;5.436;2023-03-31T13:21:25;8.05;;;2.28;;
73980;SDS011;62348;51.412;5.436;2023-03-31T13:23:51;11.98;;;2.08;;
73980;SDS011;62348;51.412;5.436;2023-03-31T13:53:49;6.55;;;1.90;;
73980;SDS011;62348;51.412;5.436;2023-03-31T13:56:38;8.10;;;2.22;;
73980;SDS011;62348;51.412;5.436;2023-03-31T13:59:17;5.07;;;1.02;;
73980;SDS011;62348;51.412;5.436;2023-03-31T14:05:05;12.43;;;2.40;;
73980;SDS011;62348;51.412;5.436;2023-03-31T14:07:45;6.18;;;1.90;;
73980;SDS011;62348;51.412;5.436;2023-03-31T14:15:30;7.85;;;1.73;;
73980;SDS011;62348;51.412;5.436;2023-03-31T14:17:56;5.43;;;1.40;;
73980;SDS011;62348;51.412;5.436;2023-03-31T14:20:24;3.67;;;1.30;;
73980;SDS011;62348;51.412;5.436;2023-03-31T14:25:39;4.32;;;1.33;;
73980;SDS011;62348;51.412;5.436;2023-03-31T14:28:18;5.47;;;1.30;;
73980;SDS011;62348;51.412;5.436;2023-03-31T14:39:19;4.82;;;0.98;;
73980;SDS011;62348;51.412;5.436;2023-03-31T14:41:54;2.08;;;0.60;;
73980;SDS011;62348;51.412;5.436;2023-03-31T14:44:23;2.53;;;0.70;;
73980;SDS011;62348;51.412;5.436;2023-03-31T14:46:49;3.63;;;0.63;;
73980;SDS011;62348;51.412;5.436;2023-03-31T14:51:45;2.33;;;0.70;;
73980;SDS011;62348;51.412;5.436;2023-03-31T14:54:14;2.90;;;0.88;;
73980;SDS011;62348;51.412;5.436;2023-03-31T14:56:41;1.23;;;0.20;;
73980;SDS011;62348;51.412;5.436;2023-03-31T14:59:08;2.35;;;0.40;;
73980;SDS011;62348;51.412;5.436;2023-03-31T15:01:34;2.83;;;0.40;;
73980;SDS011;62348;51.412;5.436;2023-03-31T15:04:06;1.23;;;0.63;;
73980;SDS011;62348;51.412;5.436;2023-03-31T15:06:39;1.13;;;0.50;;
73980;SDS011;62348;51.412;5.436;2023-03-31T15:09:06;4.15;;;2.95;;
73980;SDS011;62348;51.412;5.436;2023-03-31T15:11:34;3.33;;;2.25;;
73980;SDS011;62348;51.412;5.436;2023-03-31T15:14:00;1.85;;;0.77;;
73980;SDS011;62348;51.412;5.436;2023-03-31T15:16:42;2.10;;;1.33;;
73980;SDS011;62348;51.412;5.436;2023-03-31T15:21:45;1.95;;;0.50;;
73980;SDS011;62348;51.412;5.436;2023-03-31T15:24:17;2.40;;;0.82;;
73980;SDS011;62348;51.412;5.436;2023-03-31T15:27:00;1.20;;;0.63;;
73980;SDS011;62348;51.412;5.436;2023-03-31T15:32:03;2.55;;;0.70;;
73980;SDS011;62348;51.412;5.436;2023-03-31T15:34:36;1.80;;;0.60;;
73980;SDS011;62348;51.412;5.436;2023-03-31T15:37:01;2.28;;;0.70;;
73980;SDS011;62348;51.412;5.436;2023-03-31T15:39:31;2.15;;;0.60;;
73980;SDS011;62348;51.412;5.436;2023-03-31T15:41:57;1.85;;;0.93;;
73980;SDS011;62348;51.412;5.436;2023-03-31T15:47:23;2.13;;;0.68;;
73980;SDS011;62348;51.412;5.436;2023-03-31T15:49:57;1.75;;;0.77;;
73980;SDS011;62348;51.412;5.436;2023-03-31T15:52:35;2.70;;;0.82;;
73980;SDS011;62348;51.412;5.436;2023-03-31T15:55:24;2.47;;;1.25;;
73980;SDS011;62348;51.412;5.436;2023-03-31T15:57:52;6.18;;;1.08;;
73980;SDS011;62348;51.412;5.436;2023-03-31T16:03:17;1.80;;;0.73;;
73980;SDS011;62348;51.412;5.436;2023-03-31T16:06:04;1.98;;;0.80;;
73980;SDS011;62348;51.412;5.436;2023-03-31T16:11:32;1.05;;;0.60;;
73980;SDS011;62348;51.412;5.436;2023-03-31T16:14:04;1.27;;;0.52;;
73980;SDS011;62348;51.412;5.436;2023-03-31T16:16:35;1.33;;;0.40;;
73980;SDS011;62348;51.412;5.436;2023-03-31T16:19:02;2.75;;;0.60;;
73980;SDS011;62348;51.412;5.436;2023-03-31T16:21:35;1.35;;;0.50;;
73980;SDS011;62348;51.412;5.436;2023-03-31T16:24:04;0.70;;;0.70;;
73980;SDS011;62348;51.412;5.436;2023-03-31T16:26:30;4.53;;;1.05;;
73980;SDS011;62348;51.412;5.436;2023-03-31T16:28:57;2.90;;;1.13;;
73980;SDS011;62348;51.412;5.436;2023-03-31T16:31:29;3.92;;;0.70;;
73980;SDS011;62348;51.412;5.436;2023-03-31T16:33:58;1.95;;;0.73;;
73980;SDS011;62348;51.412;5.436;2023-03-31T16:36:24;2.15;;;1.02;;
73980;SDS011;62348;51.412;5.436;2023-03-31T16:38:51;4.78;;;0.90;;
73980;SDS011;62348;51.412;5.436;2023-03-31T16:41:20;4.90;;;1.00;;
73980;SDS011;62348;51.412;5.436;2023-03-31T16:43:47;2.08;;;0.68;;
73980;SDS011;62348;51.412;5.436;2023-03-31T16:46:16;2.97;;;0.68;;
73980;SDS011;62348;51.412;5.436;2023-03-31T16:48:42;1.80;;;0.60;;
73980;SDS011;62348;51.412;5.436;2023-03-31T16:51:07;6.65;;;1.35;;
73980;SDS011;62348;51.412;5.436;2023-03-31T16:53:33;1.90;;;0.63;;
73980;SDS011;62348;51.412;5.436;2023-03-31T16:56:00;4.55;;;0.90;;
73980;SDS011;62348;51.412;5.436;2023-03-31T16:58:27;3.85;;;0.90;;
73980;SDS011;62348;51.412;5.436;2023-03-31T17:00:53;3.88;;;0.63;;
73980;SDS011;62348;51.412;5.436;2023-03-31T17:03:19;3.05;;;0.70;;
73980;SDS011;62348;51.412;5.436;2023-03-31T17:05:49;3.00;;;0.82;;
73980;SDS011;62348;51.412;5.436;2023-03-31T17:13:17;3.97;;;0.65;;
73980;SDS011;62348;51.412;5.436;2023-03-31T17:15:43;5.53;;;1.20;;
73980;SDS011;62348;51.412;5.436;2023-03-31T17:18:08;2.40;;;1.00;;
73980;SDS011;62348;51.412;5.436;2023-03-31T17:20:34;4.07;;;0.77;;
73980;SDS011;62348;51.412;5.436;2023-03-31T17:22:59;3.28;;;0.55;;
73980;SDS011;62348;51.412;5.436;2023-03-31T17:25:24;3.58;;;0.60;;
73980;SDS011;62348;51.412;5.436;2023-03-31T17:27:50;1.83;;;0.60;;
73980;SDS011;62348;51.412;5.436;2023-03-31T17:30:16;2.60;;;1.40;;
73980;SDS011;62348;51.412;5.436;2023-03-31T17:32:44;3.80;;;0.82;;
73980;SDS011;62348;51.412;5.436;2023-03-31T17:35:12;5.55;;;1.42;;
73980;SDS011;62348;51.412;5.436;2023-03-31T17:37:44;7.00;;;2.55;;
73980;SDS011;62348;51.412;5.436;2023-03-31T17:40:10;6.28;;;2.05;;
73980;SDS011;62348;51.412;5.436;2023-03-31T17:42:37;5.70;;;2.67;;
73980;SDS011;62348;51.412;5.436;2023-03-31T17:45:03;4.68;;;1.77;;
73980;SDS011;62348;51.412;5.436;2023-03-31T17:47:29;7.03;;;1.40;;
73980;SDS011;62348;51.412;5.436;2023-03-31T17:49:56;7.70;;;3.47;;
73980;SDS011;62348;51.412;5.436;2023-03-31T17:52:21;9.77;;;3.08;;
73980;SDS011;62348;51.412;5.436;2023-03-31T17:54:47;7.55;;;2.95;;
73980;SDS011;62348;51.412;5.436;2023-03-31T17:57:13;4.78;;;1.30;;
73980;SDS011;62348;51.412;5.436;2023-03-31T17:59:38;5.68;;;1.60;;
73980;SDS011;62348;51.412;5.436;2023-03-31T18:02:03;2.33;;;0.73;;
73980;SDS011;62348;51.412;5.436;2023-03-31T18:04:29;2.17;;;0.95;;
73980;SDS011;62348;51.412;5.436;2023-03-31T18:06:54;3.35;;;0.90;;
73980;SDS011;62348;51.412;5.436;2023-03-31T18:09:20;4.30;;;1.10;;
73980;SDS011;62348;51.412;5.436;2023-03-31T18:11:46;6.43;;;1.15;;
73980;SDS011;62348;51.412;5.436;2023-03-31T18:14:12;3.72;;;1.42;;
73980;SDS011;62348;51.412;5.436;2023-03-31T18:16:38;4.93;;;1.00;;
73980;SDS011;62348;51.412;5.436;2023-03-31T18:19:03;5.65;;;1.30;;
73980;SDS011;62348;51.412;5.436;2023-03-31T18:21:29;4.55;;;1.55;;
73980;SDS011;62348;51.412;5.436;2023-03-31T18:23:55;6.18;;;1.20;;
73980;SDS011;62348;51.412;5.436;2023-03-31T18:26:21;4.22;;;1.23;;
73980;SDS011;62348;51.412;5.436;2023-03-31T18:28:48;4.10;;;1.52;;
73980;SDS011;62348;51.412;5.436;2023-03-31T18:31:14;3.63;;;1.23;;